createdAt,value
2019-03-25T00:01:52.071Z,29.77
2019-03-25T00:04:22.327Z,33.80
2019-03-25T00:06:53.246Z,36.30
2019-03-25T00:09:23.212Z,32.13
2019-03-25T00:11:53.430Z,33.77
2019-03-25T00:14:23.498Z,32.07
2019-03-25T00:16:53.502Z,35.90
2019-03-25T00:19:23.659Z,31.90
2019-03-25T00:21:53.673Z,32.57
2019-03-25T00:24:23.670Z,33.17
2019-03-25T00:26:53.874Z,32.23
2019-03-25T00:29:23.943Z,19.97
2019-03-25T00:31:53.949Z,20.03
2019-03-25T00:34:24.660Z,26.63
2019-03-25T00:36:54.698Z,27.07
2019-03-25T00:39:24.758Z,24.07
2019-03-25T00:41:54.832Z,21.70
2019-03-25T00:44:24.795Z,22.70
2019-03-25T00:46:54.906Z,21.07
2019-03-25T00:49:25.020Z,14.03
2019-03-25T00:51:55.104Z,18.40
2019-03-25T00:54:26.408Z,14.57
2019-03-25T00:56:56.537Z,14.67
2019-03-25T00:59:26.630Z,17.10
2019-03-25T01:01:56.737Z,13.43
2019-03-25T01:04:26.973Z,15.90
2019-03-25T01:06:57.070Z,15.77
2019-03-25T01:09:27.186Z,12.10
2019-03-25T01:11:57.348Z,12.90
2019-03-25T01:14:27.982Z,12.57
2019-03-25T01:16:58.176Z,18.87
2019-03-25T01:19:28.461Z,18.30
2019-03-25T01:21:59.163Z,14.27
2019-03-25T01:24:29.832Z,12.47
2019-03-25T01:26:59.946Z,16.33
2019-03-25T01:29:30.032Z,13.83
2019-03-25T01:32:00.126Z,13.63
2019-03-25T01:34:30.652Z,14.57
2019-03-25T01:37:00.979Z,12.00
2019-03-25T01:39:31.339Z,14.57
2019-03-25T01:42:01.402Z,13.23
2019-03-25T01:44:31.504Z,15.90
2019-03-25T01:47:01.493Z,16.47
2019-03-25T01:49:31.525Z,15.63
2019-03-25T01:52:01.541Z,12.17
2019-03-25T01:54:32.607Z,16.77
2019-03-25T01:57:02.644Z,15.80
2019-03-25T01:59:32.994Z,13.27
2019-03-25T02:02:03.099Z,14.73
2019-03-25T02:04:33.365Z,15.93
2019-03-25T02:07:03.407Z,15.07
2019-03-25T02:09:33.363Z,16.67
2019-03-25T02:12:03.764Z,26.70
2019-03-25T02:14:33.818Z,15.43
2019-03-25T02:17:03.813Z,18.47
2019-03-25T02:19:33.828Z,15.77
2019-03-25T02:22:03.855Z,18.37
2019-03-25T02:24:33.864Z,18.53
2019-03-25T02:27:04.117Z,16.43
2019-03-25T02:29:34.194Z,19.00
2019-03-25T02:32:04.224Z,16.07
2019-03-25T02:34:34.294Z,16.20
2019-03-25T02:37:04.353Z,15.87
2019-03-25T02:39:34.799Z,16.47
2019-03-25T02:42:05.344Z,19.00
2019-03-25T02:44:35.778Z,16.27
2019-03-25T02:47:05.919Z,14.57
2019-03-25T02:49:36.039Z,16.87
2019-03-25T02:52:06.099Z,15.17
2019-03-25T02:54:36.048Z,17.33
2019-03-25T02:57:06.173Z,15.73
2019-03-25T02:59:36.336Z,16.53
2019-03-25T03:02:06.329Z,21.57
2019-03-25T03:04:36.465Z,17.70
2019-03-25T03:07:06.485Z,18.27
2019-03-25T03:09:36.419Z,16.57
2019-03-25T03:12:06.629Z,18.07
2019-03-25T03:14:36.701Z,15.70
2019-03-25T03:17:06.696Z,15.10
2019-03-25T03:19:36.717Z,11.23
2019-03-25T03:22:06.915Z,16.67
2019-03-25T03:24:37.004Z,17.00
2019-03-25T03:27:07.186Z,15.57
2019-03-25T03:29:37.167Z,16.63
2019-03-25T03:32:07.183Z,17.43
2019-03-25T03:34:37.457Z,16.33
2019-03-25T03:37:07.475Z,17.30
2019-03-25T03:39:37.725Z,15.70
2019-03-25T03:42:07.911Z,17.50
2019-03-25T03:44:39.053Z,16.73
2019-03-25T03:47:09.046Z,15.77
2019-03-25T03:49:39.309Z,16.80
2019-03-25T03:52:09.595Z,15.53
2019-03-25T03:54:40.846Z,23.53
2019-03-25T03:57:11.862Z,17.23
2019-03-25T03:59:43.257Z,15.10
2019-03-25T04:02:13.305Z,14.97
2019-03-25T04:04:43.335Z,14.87
2019-03-25T04:07:13.390Z,20.87
2019-03-25T04:09:44.045Z,17.50
2019-03-25T04:12:14.339Z,14.73
2019-03-25T04:14:44.301Z,15.53
2019-03-25T04:17:14.322Z,18.73
2019-03-25T04:19:44.423Z,13.20
2019-03-25T04:22:14.424Z,13.83
2019-03-25T04:24:44.586Z,16.13
2019-03-25T04:27:14.632Z,12.90
2019-03-25T04:29:44.592Z,19.10
2019-03-25T04:32:15.101Z,21.40
2019-03-25T04:34:45.685Z,15.33
2019-03-25T04:37:15.697Z,20.77
2019-03-25T04:39:45.654Z,17.60
2019-03-25T04:42:16.306Z,15.87
2019-03-25T04:44:47.771Z,16.60
2019-03-25T04:47:17.817Z,14.43
2019-03-25T04:49:47.826Z,18.97
2019-03-25T04:52:17.933Z,14.57
2019-03-25T04:54:47.999Z,22.17
2019-03-25T04:57:18.055Z,14.93
2019-03-25T04:59:48.550Z,21.93
2019-03-25T05:02:18.574Z,20.60
2019-03-25T05:04:49.044Z,19.23
2019-03-25T05:07:21.594Z,16.47
2019-03-25T05:09:51.643Z,15.13
2019-03-25T05:12:21.790Z,17.87
2019-03-25T05:14:51.883Z,27.13
2019-03-25T05:17:21.947Z,31.73
2019-03-25T05:19:52.670Z,36.87
2019-03-25T05:22:22.743Z,35.07
2019-03-25T05:24:52.801Z,45.50
2019-03-25T05:27:22.860Z,49.63
2019-03-25T05:29:53.340Z,33.37
2019-03-25T05:32:23.347Z,33.33
2019-03-25T05:34:53.253Z,32.13
2019-03-25T05:37:23.360Z,30.07
2019-03-25T05:39:53.426Z,30.80
2019-03-25T05:42:23.402Z,31.93
2019-03-25T05:44:53.677Z,29.93
2019-03-25T05:47:23.630Z,35.63
2019-03-25T05:49:53.577Z,34.17
2019-03-25T05:52:24.634Z,31.33
2019-03-25T05:54:55.289Z,26.93
2019-03-25T05:57:25.267Z,35.93
2019-03-25T05:59:55.287Z,33.77
2019-03-25T06:02:25.393Z,27.23
2019-03-25T06:04:55.477Z,30.00
2019-03-25T06:07:25.996Z,29.97
2019-03-25T06:09:57.065Z,30.87
2019-03-25T06:12:27.194Z,27.17
2019-03-25T06:14:57.302Z,35.67
2019-03-25T06:17:27.371Z,30.77
2019-03-25T06:19:57.332Z,27.10
2019-03-25T06:22:27.464Z,31.57
2019-03-25T06:24:57.414Z,28.10
2019-03-25T06:27:27.474Z,31.27
2019-03-25T06:29:57.600Z,29.97
2019-03-25T06:32:27.534Z,37.10
2019-03-25T06:34:57.468Z,35.67
2019-03-25T06:37:27.725Z,30.43
2019-03-25T06:39:57.780Z,33.50
2019-03-25T06:42:27.745Z,29.93
2019-03-25T06:44:57.931Z,33.97
2019-03-25T06:47:27.994Z,28.20
2019-03-25T06:49:58.078Z,32.47
2019-03-25T06:52:28.611Z,37.60
2019-03-25T06:54:58.660Z,43.77
2019-03-25T06:57:28.731Z,34.60
2019-03-25T06:59:58.854Z,37.40
2019-03-25T07:02:28.810Z,34.80
2019-03-25T07:04:58.741Z,40.80
2019-03-25T07:07:28.868Z,33.87
2019-03-25T07:10:01.354Z,37.30
2019-03-25T07:12:31.289Z,31.67
2019-03-25T07:15:01.293Z,29.13
2019-03-25T07:17:31.346Z,29.90
2019-03-25T07:20:01.394Z,30.10
2019-03-25T07:22:31.465Z,35.87
2019-03-25T07:25:01.448Z,32.67
2019-03-25T07:27:36.601Z,33.73
2019-03-25T07:30:03.419Z,30.43
2019-03-25T07:32:33.344Z,28.23
2019-03-25T07:35:03.327Z,35.00
2019-03-25T07:37:34.094Z,30.97
2019-03-25T07:40:04.671Z,25.87
2019-03-25T07:42:34.627Z,24.77
2019-03-25T07:45:05.008Z,25.80
2019-03-25T07:47:34.963Z,24.10
2019-03-25T07:50:05.086Z,32.00
2019-03-25T07:52:35.198Z,27.37
2019-03-25T07:55:05.593Z,24.27
2019-03-25T07:57:35.551Z,23.90
2019-03-25T08:00:13.414Z,23.13
2019-03-25T08:02:38.744Z,23.07
2019-03-25T08:05:08.912Z,23.87
2019-03-25T08:07:38.951Z,23.57
2019-03-25T08:10:10.423Z,33.00
2019-03-25T08:12:40.555Z,23.37
2019-03-25T08:15:11.053Z,28.77
2019-03-25T08:17:41.008Z,22.97
2019-03-25T08:20:12.512Z,24.03
2019-03-25T08:22:42.759Z,21.30
2019-03-25T08:25:12.923Z,24.73
2019-03-25T08:27:42.982Z,19.37
2019-03-25T08:30:13.679Z,25.70
2019-03-25T08:32:43.713Z,24.03
2019-03-25T08:35:14.205Z,26.53
2019-03-25T08:37:44.303Z,24.10
2019-03-25T08:40:14.771Z,21.83
2019-03-25T08:42:44.710Z,22.90
2019-03-25T08:45:15.039Z,21.27
2019-03-25T08:47:45.104Z,23.93
2019-03-25T08:50:15.458Z,30.17
2019-03-25T08:52:45.611Z,28.50
2019-03-25T08:55:15.617Z,25.37
2019-03-25T08:57:45.653Z,32.53
2019-03-25T09:00:16.182Z,27.23
2019-03-25T09:02:46.138Z,23.27
2019-03-25T09:05:16.509Z,27.63
2019-03-25T09:07:46.574Z,24.83
2019-03-25T09:10:16.542Z,27.30
2019-03-25T09:12:46.617Z,26.50
2019-03-25T09:15:17.241Z,23.37
2019-03-25T09:17:47.165Z,28.13
2019-03-25T09:20:17.431Z,29.47
2019-03-25T09:22:48.228Z,25.27
2019-03-25T09:25:18.588Z,23.63
2019-03-25T09:27:48.541Z,29.07
2019-03-25T09:30:54.576Z,24.13
2019-03-25T09:33:24.650Z,25.23
2019-03-25T09:35:54.870Z,23.87
2019-03-25T09:38:24.896Z,23.17
2019-03-25T09:40:54.832Z,25.30
2019-03-25T09:43:24.903Z,22.77
2019-03-25T09:45:54.896Z,25.27
2019-03-25T09:48:24.940Z,31.93
2019-03-25T09:50:55.009Z,27.23
2019-03-25T09:53:25.035Z,25.93
2019-03-25T09:55:55.115Z,34.73
2019-03-25T09:58:35.680Z,24.83
2019-03-25T10:00:57.191Z,27.23
2019-03-25T10:03:27.429Z,23.57
2019-03-25T10:05:57.732Z,25.20
2019-03-25T10:08:28.858Z,25.80
2019-03-25T10:10:58.926Z,23.27
2019-03-25T10:13:28.900Z,24.40
2019-03-25T10:15:58.889Z,23.63
2019-03-25T10:18:28.983Z,25.73
2019-03-25T10:20:59.033Z,21.20
2019-03-25T10:23:29.056Z,23.70
2019-03-25T10:25:59.115Z,24.77
2019-03-25T10:28:32.011Z,25.37
2019-03-25T10:31:02.015Z,25.07
2019-03-25T10:33:32.093Z,32.57
2019-03-25T10:36:02.166Z,28.77
2019-03-25T10:38:32.141Z,21.10
2019-03-25T10:41:02.133Z,27.00
2019-03-25T10:43:32.183Z,20.27
2019-03-25T10:46:02.475Z,23.33
2019-03-25T10:48:33.389Z,20.93
2019-03-25T10:51:03.343Z,22.30
2019-03-25T10:53:33.431Z,25.13
2019-03-25T10:56:04.292Z,21.77
2019-03-25T10:58:34.233Z,24.97
2019-03-25T11:01:04.356Z,28.50
2019-03-25T11:03:34.404Z,23.17
2019-03-25T11:06:04.378Z,24.17
2019-03-25T11:08:35.350Z,21.47
2019-03-25T11:11:06.420Z,23.67
2019-03-25T11:13:36.584Z,24.60
2019-03-25T11:16:06.593Z,22.07
2019-03-25T11:18:36.655Z,23.23
2019-03-25T11:21:06.702Z,20.03
2019-03-25T11:23:36.723Z,21.53
2019-03-25T11:26:06.674Z,19.97
2019-03-25T11:28:36.793Z,20.47
2019-03-25T11:31:07.000Z,23.33
2019-03-25T11:33:37.041Z,23.40
2019-03-25T11:36:07.199Z,25.80
2019-03-25T11:38:37.310Z,21.50
2019-03-25T11:41:07.475Z,21.10
2019-03-25T11:43:37.473Z,27.77
2019-03-25T11:46:07.778Z,22.00
2019-03-25T11:48:37.732Z,28.57
2019-03-25T11:51:07.686Z,19.80
2019-03-25T11:53:38.218Z,21.87
2019-03-25T11:56:08.346Z,20.00
2019-03-25T11:58:38.283Z,20.80
2019-03-25T12:01:08.276Z,14.63
2019-03-25T12:03:38.744Z,23.80
2019-03-25T12:06:08.885Z,13.57
2019-03-25T12:08:39.046Z,22.13
2019-03-25T12:11:09.172Z,20.00
2019-03-25T12:13:39.211Z,18.13
2019-03-25T12:16:09.318Z,16.47
2019-03-25T12:18:39.266Z,17.97
2019-03-25T12:21:09.278Z,17.20
2019-03-25T12:23:40.331Z,20.63
2019-03-25T12:26:10.367Z,19.07
2019-03-25T12:28:40.319Z,21.17
2019-03-25T12:31:10.444Z,17.90
2019-03-25T12:33:40.490Z,20.57
2019-03-25T12:36:10.619Z,21.23
2019-03-25T12:38:41.659Z,23.13
2019-03-25T12:41:11.593Z,21.67
2019-03-25T12:43:41.671Z,14.97
2019-03-25T12:46:11.760Z,17.90
2019-03-25T12:48:41.854Z,20.93
2019-03-25T12:51:11.816Z,17.00
2019-03-25T12:53:42.829Z,14.30
2019-03-25T12:56:12.876Z,13.63
2019-03-25T12:58:42.906Z,12.77
2019-03-25T13:01:12.867Z,14.83
2019-03-25T13:03:42.945Z,17.50
2019-03-25T13:06:12.875Z,15.20
2019-03-25T13:08:42.955Z,11.20
2019-03-25T13:11:13.010Z,14.60
2019-03-25T13:13:42.944Z,13.60
2019-03-25T13:16:12.920Z,15.03
2019-03-25T13:18:42.987Z,12.13
2019-03-25T13:21:13.046Z,13.63
2019-03-25T13:23:43.061Z,13.20
2019-03-25T13:26:12.998Z,14.70
2019-03-25T13:28:43.039Z,13.23
2019-03-25T13:31:13.122Z,13.03
2019-03-25T13:33:43.108Z,9.73
2019-03-25T13:36:13.157Z,15.27
2019-03-25T13:38:43.393Z,12.53
2019-03-25T13:41:13.462Z,13.97
2019-03-25T13:43:43.893Z,16.00
2019-03-25T13:46:14.213Z,13.43
2019-03-25T13:48:44.123Z,16.33
2019-03-25T13:51:14.062Z,10.10
2019-03-25T13:53:44.351Z,14.07
2019-03-25T13:56:14.454Z,13.40
2019-03-25T13:58:44.818Z,10.57
2019-03-25T14:01:14.810Z,13.63
2019-03-25T14:03:44.871Z,13.67
2019-03-25T14:06:14.923Z,14.00
2019-03-25T14:08:45.048Z,16.87
2019-03-25T14:11:14.994Z,12.20
2019-03-25T14:13:49.351Z,12.43
2019-03-25T14:16:16.893Z,11.27
2019-03-25T14:18:46.832Z,9.80
2019-03-25T14:21:16.759Z,12.10
2019-03-25T14:23:46.855Z,30.00
2019-03-25T14:26:16.787Z,13.57
2019-03-25T14:28:46.830Z,13.83
2019-03-25T14:31:16.924Z,12.60
2019-03-25T14:33:46.890Z,14.87
2019-03-25T14:36:16.815Z,16.73
2019-03-25T14:38:46.930Z,12.33
2019-03-25T14:41:16.973Z,16.40
2019-03-25T14:43:46.935Z,12.60
2019-03-25T14:46:16.895Z,10.93
2019-03-25T14:48:46.936Z,10.60
2019-03-25T14:51:16.976Z,11.57
2019-03-25T14:53:46.942Z,9.80
2019-03-25T14:56:17.136Z,17.13
2019-03-25T14:58:47.211Z,11.27
2019-03-25T15:01:17.300Z,14.10
2019-03-25T15:03:47.253Z,12.80
2019-03-25T15:06:17.308Z,11.43
2019-03-25T15:08:47.342Z,9.50
2019-03-25T15:11:17.345Z,13.23
2019-03-25T15:13:47.782Z,11.63
2019-03-25T15:16:17.980Z,13.37
2019-03-25T15:18:47.907Z,11.00
2019-03-25T15:21:17.866Z,13.13
2019-03-25T15:23:47.967Z,10.17
2019-03-25T15:26:18.030Z,8.60
2019-03-25T15:28:47.958Z,10.20
2019-03-25T15:31:17.987Z,11.77
2019-03-25T15:33:48.054Z,10.83
2019-03-25T15:36:18.067Z,9.57
2019-03-25T15:38:48.034Z,9.10
2019-03-25T15:41:17.987Z,16.27
2019-03-25T15:43:48.023Z,11.57
2019-03-25T15:46:18.000Z,13.83
2019-03-25T15:48:48.034Z,13.77
2019-03-25T15:51:18.119Z,15.57
2019-03-25T15:53:48.118Z,11.73
2019-03-25T15:56:18.051Z,11.33
2019-03-25T15:58:48.094Z,11.47
2019-03-25T16:01:18.343Z,13.07
2019-03-25T16:03:48.340Z,10.20
2019-03-25T16:06:18.290Z,10.53
2019-03-25T16:08:48.372Z,13.43
2019-03-25T16:11:18.452Z,10.97
2019-03-25T16:13:48.407Z,9.97
2019-03-25T16:16:18.399Z,10.07
2019-03-25T16:18:48.450Z,15.07
2019-03-25T16:21:18.525Z,19.67
2019-03-25T16:23:48.513Z,18.60
2019-03-25T16:26:18.569Z,13.20
2019-03-25T16:28:48.664Z,13.27
2019-03-25T16:31:18.682Z,8.40
2019-03-25T16:33:48.723Z,12.37
2019-03-25T16:36:18.768Z,14.60
2019-03-25T16:38:48.944Z,10.80
2019-03-25T16:41:19.075Z,8.13
2019-03-25T16:43:49.116Z,14.43
2019-03-25T16:46:19.209Z,7.50
2019-03-25T16:48:49.142Z,11.47
2019-03-25T16:51:19.089Z,11.83
2019-03-25T16:53:51.232Z,13.10
2019-03-25T16:56:21.301Z,9.23
2019-03-25T16:58:51.355Z,9.53
2019-03-25T17:01:21.346Z,8.87
2019-03-25T17:03:54.085Z,10.93
2019-03-25T17:06:24.212Z,10.93
2019-03-25T17:08:55.524Z,10.83
2019-03-25T17:11:26.572Z,18.50
2019-03-25T17:13:56.519Z,9.30
2019-03-25T17:16:28.515Z,8.43
2019-03-25T17:19:02.149Z,10.17
2019-03-25T17:21:33.198Z,8.90
2019-03-25T17:24:03.526Z,11.27
2019-03-25T17:26:42.027Z,14.13
2019-03-25T17:29:05.316Z,11.23
2019-03-25T17:31:35.596Z,8.77
2019-03-25T17:34:06.595Z,13.20
2019-03-25T17:36:38.165Z,10.80
2019-03-25T17:39:10.844Z,12.90
2019-03-25T17:41:40.912Z,12.37
2019-03-25T17:44:10.942Z,16.70
2019-03-25T17:46:42.266Z,13.67
2019-03-25T17:49:13.422Z,10.93
2019-03-25T17:51:44.110Z,9.57
2019-03-25T17:54:15.032Z,13.73
2019-03-25T17:56:44.985Z,12.73
2019-03-25T17:59:26.699Z,14.50
2019-03-25T18:01:56.756Z,12.17
2019-03-25T18:04:26.717Z,9.20
2019-03-25T18:06:56.692Z,12.17
2019-03-25T18:09:26.813Z,9.40
2019-03-25T18:11:56.882Z,8.30
2019-03-25T18:14:27.681Z,8.97
2019-03-25T18:16:57.650Z,8.70
2019-03-25T18:19:27.682Z,8.23
2019-03-25T18:21:57.807Z,11.33
2019-03-25T18:24:27.760Z,15.80
2019-03-25T18:26:57.944Z,9.37
2019-03-25T18:29:32.918Z,12.17
2019-03-25T18:32:04.117Z,9.27
2019-03-25T18:34:35.692Z,12.00
2019-03-25T18:37:05.940Z,12.20
2019-03-25T18:39:35.871Z,8.03
2019-03-25T18:42:05.812Z,10.80
2019-03-25T18:44:36.084Z,13.53
2019-03-25T18:47:06.145Z,8.73
2019-03-25T18:49:36.100Z,9.93
2019-03-25T18:52:06.087Z,8.40
2019-03-25T18:54:36.131Z,7.73
2019-03-25T18:57:06.273Z,10.60
2019-03-25T18:59:36.279Z,8.07
2019-03-25T19:02:06.217Z,11.23
2019-03-25T19:04:36.258Z,10.47
2019-03-25T19:07:08.205Z,6.97
2019-03-25T19:09:38.229Z,14.93
2019-03-25T19:12:08.308Z,8.50
2019-03-25T19:14:38.437Z,10.47
2019-03-25T19:17:08.394Z,15.07
2019-03-25T19:19:38.482Z,13.80
2019-03-25T19:22:08.641Z,12.00
2019-03-25T19:24:38.604Z,10.63
2019-03-25T19:27:08.593Z,9.27
2019-03-25T19:29:40.161Z,12.33
2019-03-25T19:32:10.607Z,11.10
2019-03-25T19:34:41.038Z,8.17
2019-03-25T19:37:11.581Z,11.23
2019-03-25T19:39:42.135Z,11.67
2019-03-25T19:42:12.909Z,13.60
2019-03-25T19:44:43.851Z,12.50
2019-03-25T19:47:15.060Z,9.67
2019-03-25T19:49:45.352Z,10.43
2019-03-25T19:52:15.376Z,13.13
2019-03-25T19:54:46.009Z,7.50
2019-03-25T19:57:16.086Z,8.97
2019-03-25T19:59:46.123Z,9.70
2019-03-25T20:02:19.224Z,12.37
2019-03-25T20:04:48.220Z,12.63
2019-03-25T20:07:18.267Z,14.03
2019-03-25T20:09:48.353Z,13.17
2019-03-25T20:12:18.283Z,6.17
2019-03-25T20:14:48.762Z,7.67
2019-03-25T20:17:18.858Z,10.83
2019-03-25T20:19:48.795Z,10.53
2019-03-25T20:22:18.961Z,10.43
2019-03-25T20:24:49.029Z,8.97
2019-03-25T20:27:18.957Z,8.17
2019-03-25T20:29:49.082Z,9.03
2019-03-25T20:32:30.987Z,8.20
2019-03-25T20:34:50.906Z,9.03
2019-03-25T20:37:21.041Z,11.83
2019-03-25T20:39:51.103Z,9.70
2019-03-25T20:42:21.162Z,12.03
2019-03-25T20:44:51.305Z,8.30
2019-03-25T20:47:21.262Z,7.53
2019-03-25T20:49:51.790Z,11.37
2019-03-25T20:52:24.339Z,11.97
2019-03-25T20:54:53.532Z,10.07
2019-03-25T20:57:23.479Z,10.03
2019-03-25T20:59:54.036Z,10.43
2019-03-25T21:02:24.101Z,9.27
2019-03-25T21:04:54.051Z,7.40
2019-03-25T21:07:24.238Z,11.07
2019-03-25T21:09:54.206Z,11.87
2019-03-25T21:12:24.135Z,8.57
2019-03-25T21:14:54.308Z,9.87
2019-03-25T21:17:24.348Z,8.90
2019-03-25T21:19:54.370Z,15.73
2019-03-25T21:22:24.392Z,11.37
2019-03-25T21:24:54.435Z,11.70
2019-03-25T21:27:24.545Z,7.47
2019-03-25T21:29:54.711Z,13.90
2019-03-25T21:32:24.694Z,9.20
2019-03-25T21:34:54.732Z,12.33
2019-03-25T21:37:24.810Z,8.53
2019-03-25T21:39:54.862Z,8.60
2019-03-25T21:42:24.836Z,7.87
2019-03-25T21:44:55.567Z,9.67
2019-03-25T21:47:25.639Z,9.03
2019-03-25T21:49:55.693Z,7.70
2019-03-25T21:52:26.772Z,7.07
2019-03-25T21:54:56.765Z,8.33
2019-03-25T21:57:27.088Z,8.07
2019-03-25T21:59:57.375Z,11.30
2019-03-25T22:02:27.494Z,6.90
2019-03-25T22:04:57.467Z,12.93
2019-03-25T22:07:27.807Z,9.03
2019-03-25T22:09:57.888Z,8.77
2019-03-25T22:12:28.382Z,8.03
2019-03-25T22:14:58.412Z,10.60
2019-03-25T22:17:28.351Z,11.90
2019-03-25T22:19:58.422Z,9.43
2019-03-25T22:22:28.513Z,12.27
2019-03-25T22:24:58.457Z,14.50
2019-03-25T22:27:28.531Z,10.63
2019-03-25T22:29:58.692Z,10.23
2019-03-25T22:32:29.657Z,11.43
2019-03-25T22:35:00.487Z,10.53
2019-03-25T22:37:30.584Z,10.80
2019-03-25T22:40:00.521Z,8.97
2019-03-25T22:42:30.472Z,16.83
2019-03-25T22:45:00.564Z,13.53
2019-03-25T22:47:30.614Z,11.87
2019-03-25T22:50:00.548Z,12.20
2019-03-25T22:52:30.564Z,16.23
2019-03-25T22:55:00.632Z,12.60
2019-03-25T22:57:30.984Z,16.43
2019-03-25T23:00:01.275Z,18.90
2019-03-25T23:02:31.218Z,9.67
2019-03-25T23:05:02.367Z,16.43
2019-03-25T23:07:32.619Z,19.30
2019-03-25T23:10:02.566Z,10.10
2019-03-25T23:12:32.526Z,12.47
2019-03-25T23:15:02.627Z,12.90
2019-03-25T23:17:32.702Z,14.47
2019-03-25T23:20:03.197Z,17.17
2019-03-25T23:22:33.202Z,13.70
2019-03-25T23:25:03.259Z,11.33
2019-03-25T23:27:33.747Z,12.53
2019-03-25T23:30:04.837Z,14.53
2019-03-25T23:32:34.853Z,11.33
2019-03-25T23:35:05.003Z,13.77
2019-03-25T23:37:35.098Z,11.40
2019-03-25T23:40:05.963Z,13.30
2019-03-25T23:42:37.504Z,17.13
2019-03-25T23:45:07.796Z,15.23
2019-03-25T23:47:37.730Z,9.73
2019-03-25T23:50:08.636Z,15.43
2019-03-25T23:52:38.744Z,12.70
2019-03-25T23:55:08.724Z,12.80
2019-03-25T23:57:38.671Z,11.93
